Time;durP1;ratioP1;P1;durP2;ratioP2;P2;SDS_P1;SDS_P2;PMS_P1;PMS_P2;Temp;Humidity;BMP_temperature;BMP_pressure;BME280_temperature;BME280_humidity;BME280_pressure;Samples;Min_cycle;Max_cycle;Signal;HPM_P1;HPM_P2
2022/07/06 00:00:15;;;;;;;6.67;6.07;;;18.10;99.90;;;;;;5045717;28;20238;-54
2022/07/06 00:03:21;;;;;;;4.90;4.40;;;18.10;99.90;;;;;;5030819;28;20185;-55
2022/07/06 00:05:47;;;;;;;5.40;4.43;;;18.20;99.90;;;;;;5041161;28;20200;-54
2022/07/06 00:08:12;;;;;;;5.60;5.13;;;18.20;99.90;;;;;;5027846;28;20534;-55
2022/07/06 00:10:38;;;;;;;5.07;4.67;;;18.20;99.90;;;;;;5046309;28;20513;-56
2022/07/06 00:13:03;;;;;;;4.67;4.13;;;18.30;99.90;;;;;;5027157;28;20200;-55
2022/07/06 00:15:29;;;;;;;3.90;3.60;;;18.30;99.90;;;;;;5043098;28;20537;-55
2022/07/06 00:17:54;;;;;;;5.33;4.90;;;18.30;99.90;;;;;;5040803;28;20282;-55
2022/07/06 00:20:20;;;;;;;4.50;4.10;;;18.40;99.90;;;;;;5024396;28;20542;-55
2022/07/06 00:26:55;;;;;;;4.50;4.10;;;18.40;99.90;;;;;;5019238;28;20677;-55
2022/07/06 00:29:21;;;;;;;4.00;3.60;;;18.40;99.90;;;;;;5028420;28;20455;-56
2022/07/06 00:35:14;;;;;;;5.10;4.27;;;18.20;45.20;;;;;;4999299;28;20201;-53
2022/07/06 00:40:49;;;;;;;4.23;3.80;;;18.40;95.30;;;;;;5026694;28;20189;-55
2022/07/06 00:43:14;;;;;;;4.13;3.20;;;18.60;94.30;;;;;;5023709;28;20775;-56
2022/07/06 00:45:40;;;;;;;3.37;3.07;;;18.60;42.80;;;;;;5024473;28;20243;-54
2022/07/06 00:52:00;;;;;;;4.17;3.77;;;18.50;1.00;;;;;;5016700;28;20208;-55
2022/07/06 00:54:32;;;;;;;4.00;3.60;;;18.60;15.10;;;;;;5045376;28;20443;-54
2022/07/06 00:57:48;;;;;;;3.50;3.20;;;18.60;18.10;;;;;;5027258;28;20537;-55
2022/07/06 01:00:17;;;;;;;3.67;3.37;;;18.60;3.50;;;;;;4930389;29;20456;-56
2022/07/06 01:02:43;;;;;;;3.47;3.17;;;18.60;9.40;;;;;;4929754;29;20476;-54
2022/07/06 01:05:11;;;;;;;3.60;3.30;;;18.70;1.00;;;;;;4928942;29;20443;-57
2022/07/06 01:07:38;;;;;;;4.50;3.40;;;18.70;1.00;;;;;;4928739;29;20444;-53
2022/07/06 01:10:05;;;;;;;3.77;3.47;;;18.70;4.10;;;;;;4929315;29;20487;-55
2022/07/06 01:12:31;;;;;;;3.77;3.40;;;18.70;7.20;;;;;;4928572;29;20470;-55
2022/07/06 01:14:56;;;;;;;5.00;3.50;;;18.70;1.00;;;;;;4925916;29;20940;-54
2022/07/06 01:17:23;;;;;;;3.60;3.30;;;18.90;1.00;;;;;;4929388;29;20515;-56
2022/07/06 01:19:49;;;;;;;4.93;3.60;;;19.00;7.30;;;;;;4928566;29;20204;-55
2022/07/06 01:25:41;;;;;;;4.00;3.67;;;19.20;1.00;;;;;;4867625;29;20277;-54
2022/07/06 01:31:45;;;;;;;6.03;3.23;;;19.00;1.00;;;;;;4871667;29;20713;-54
2022/07/06 01:34:11;;;;;;;5.73;3.50;;;18.90;1.00;;;;;;4903363;29;20567;-54
2022/07/06 01:40:14;;;;;;;4.93;3.67;;;18.80;1.00;;;;;;4991952;28;20775;-54
2022/07/06 01:46:06;;;;;;;3.10;2.80;;;18.70;1.00;;;;;;5017915;28;20674;-53
2022/07/06 01:48:32;;;;;;;3.50;3.20;;;18.60;1.00;;;;;;5027209;28;20463;-56
2022/07/06 01:50:57;;;;;;;4.07;3.07;;;18.60;1.00;;;;;;5024437;28;20447;-56
2022/07/06 01:53:23;;;;;;;3.73;3.00;;;18.60;1.00;;;;;;5026675;28;20208;-54
2022/07/06 01:59:15;;;;;;;3.87;3.57;;;18.80;1.00;;;;;;4942501;28;21608;-53
2022/07/06 02:01:40;;;;;;;3.87;3.57;;;18.60;1.00;;;;;;5008769;28;20500;-53
2022/07/06 02:04:06;;;;;;;4.03;3.70;;;18.70;1.00;;;;;;5028644;28;20196;-52
2022/07/06 02:06:32;;;;;;;3.27;3.00;;;18.70;1.00;;;;;;5036249;28;20258;-55
2022/07/06 02:08:57;;;;;;;4.30;4.00;;;18.50;1.00;;;;;;5026951;28;20192;-55
2022/07/06 02:11:23;;;;;;;3.60;3.30;;;18.50;1.00;;;;;;5028224;28;20279;-53
2022/07/06 02:13:48;;;;;;;3.83;3.53;;;18.40;1.00;;;;;;5025157;28;20223;-56
2022/07/06 02:16:14;;;;;;;4.13;3.57;;;18.40;1.00;;;;;;5027041;28;20216;-53
2022/07/06 02:18:40;;;;;;;4.33;3.93;;;18.50;1.00;;;;;;5025288;28;20215;-53
2022/07/06 02:21:05;;;;;;;3.67;3.37;;;18.50;1.00;;;;;;5024415;28;20197;-55
2022/07/06 02:23:31;;;;;;;3.53;3.23;;;18.50;1.00;;;;;;5031298;28;20188;-54
2022/07/06 02:25:57;;;;;;;3.80;3.50;;;18.40;1.00;;;;;;5037121;28;20192;-55
2022/07/06 02:28:22;;;;;;;4.53;3.50;;;18.50;1.00;;;;;;5031203;28;20198;-55
2022/07/06 02:30:48;;;;;;;4.20;3.90;;;18.50;1.00;;;;;;5029352;28;20228;-56
2022/07/06 02:33:13;;;;;;;3.70;3.40;;;18.70;1.00;;;;;;5027004;28;20272;-53
2022/07/06 02:35:42;;;;;;;5.73;3.77;;;18.70;1.00;;;;;;5026651;28;20850;-53
2022/07/06 02:38:08;;;;;;;2.97;2.77;;;18.70;1.00;;;;;;5030634;28;20568;-54
2022/07/06 02:40:34;;;;;;;3.33;3.13;;;18.70;1.00;;;;;;5030517;28;20469;-55
2022/07/06 02:43:00;;;;;;;3.83;3.43;;;18.60;1.00;;;;;;5028956;28;20455;-55
2022/07/06 02:45:25;;;;;;;3.30;3.10;;;18.60;1.00;;;;;;5031423;28;20188;-55
2022/07/06 02:47:51;;;;;;;4.73;3.37;;;18.50;1.00;;;;;;5026583;28;20224;-53
2022/07/06 02:50:17;;;;;;;3.57;3.27;;;18.40;1.00;;;;;;5022857;28;20204;-53
2022/07/06 02:52:42;;;;;;;4.80;3.90;;;18.40;1.00;;;;;;5026588;28;20597;-55
2022/07/06 02:55:08;;;;;;;4.63;3.23;;;18.40;1.00;;;;;;5035297;28;20447;-56
2022/07/06 02:57:34;;;;;;;4.47;3.40;;;18.40;1.00;;;;;;5030470;28;20270;-55
2022/07/06 03:00:00;;;;;;;4.27;3.87;;;18.40;1.00;;;;;;5036353;28;20446;-54
2022/07/06 03:02:25;;;;;;;3.73;3.40;;;18.40;1.00;;;;;;5025624;28;20191;-54
2022/07/06 03:04:51;;;;;;;3.80;3.40;;;18.40;1.00;;;;;;5024075;28;20194;-54
2022/07/06 03:07:16;;;;;;;3.53;3.23;;;18.40;1.00;;;;;;5025854;28;20236;-56
2022/07/06 03:09:42;;;;;;;6.73;3.70;;;18.40;1.00;;;;;;5029547;28;20188;-56
2022/07/06 03:12:08;;;;;;;4.03;3.73;;;18.30;1.00;;;;;;5028871;28;20196;-54
2022/07/06 03:14:33;;;;;;;4.13;3.73;;;18.40;1.00;;;;;;5033642;28;20242;-55
2022/07/06 03:16:59;;;;;;;6.13;3.40;;;18.40;1.00;;;;;;5037400;28;20261;-54
2022/07/06 03:19:24;;;;;;;3.27;3.00;;;18.50;1.00;;;;;;5027035;28;20221;-55
2022/07/06 03:21:50;;;;;;;3.70;3.40;;;17.30;1.00;;;;;;5030363;28;20201;-55
2022/07/06 03:24:16;;;;;;;3.67;3.37;;;18.40;1.00;;;;;;5030623;28;20224;-54
2022/07/06 03:26:41;;;;;;;4.60;3.13;;;18.40;1.00;;;;;;5030541;28;20668;-54
2022/07/06 03:29:07;;;;;;;3.80;3.40;;;18.40;1.00;;;;;;5028099;28;20185;-54
2022/07/06 03:31:32;;;;;;;7.00;3.93;;;18.40;1.00;;;;;;5028044;28;20781;-54
2022/07/06 03:33:58;;;;;;;3.20;3.00;;;18.50;1.00;;;;;;5026428;28;20197;-53
2022/07/06 03:36:23;;;;;;;5.20;3.40;;;18.50;1.00;;;;;;5027664;28;20340;-54
2022/07/06 03:38:49;;;;;;;5.10;3.53;;;18.60;1.00;;;;;;5033598;28;20622;-53
2022/07/06 03:41:15;;;;;;;6.83;3.40;;;18.90;1.00;;;;;;5032980;28;20280;-54
2022/07/06 03:43:42;;;;;;;3.47;3.13;;;19.10;1.00;;;;;;5030565;28;20185;-55
2022/07/06 03:46:07;;;;;;;3.30;3.00;;;19.20;1.00;;;;;;5021086;28;20243;-54
2022/07/06 03:48:33;;;;;;;3.67;2.80;;;19.40;1.00;;;;;;5032016;28;20813;-56
2022/07/06 03:50:59;;;;;;;6.20;3.20;;;19.50;1.00;;;;;;5029567;28;20345;-55
2022/07/06 03:53:24;;;;;;;4.03;2.90;;;19.60;1.00;;;;;;5029448;28;20188;-54
2022/07/06 03:58:34;;;;;;;3.77;3.47;;;19.80;1.00;;;;;;5033674;28;20673;-55
2022/07/06 04:01:00;;;;;;;4.30;3.73;;;19.80;1.00;;;;;;5030046;28;20421;-54
2022/07/06 04:03:25;;;;;;;4.33;3.97;;;19.90;1.00;;;;;;5021456;28;20185;-54
2022/07/06 04:05:51;;;;;;;4.57;4.17;;;19.90;1.00;;;;;;5026077;28;20235;-55
2022/07/06 04:08:16;;;;;;;4.27;3.97;;;19.90;1.00;;;;;;5027547;28;20284;-55
2022/07/06 04:10:42;;;;;;;4.60;4.20;;;19.80;1.00;;;;;;5031786;28;20257;-52
2022/07/06 04:13:08;;;;;;;5.17;4.67;;;19.70;1.00;;;;;;5023164;28;20173;-54
2022/07/06 04:15:33;;;;;;;4.50;4.10;;;19.60;1.00;;;;;;5027720;28;20191;-55
2022/07/06 04:17:59;;;;;;;5.13;3.73;;;19.50;1.00;;;;;;5027555;28;20728;-55
2022/07/06 04:20:25;;;;;;;5.03;4.63;;;19.40;1.00;;;;;;5025033;28;20750;-55
2022/07/06 04:22:52;;;;;;;7.17;4.70;;;19.40;1.00;;;;;;5027608;28;20219;-54
2022/07/06 04:25:17;;;;;;;4.47;3.87;;;19.50;1.00;;;;;;5030549;28;21015;-54
2022/07/06 04:27:43;;;;;;;4.33;3.93;;;19.30;1.00;;;;;;5029996;28;20487;-57
2022/07/06 04:30:10;;;;;;;4.40;4.00;;;19.10;1.00;;;;;;5028127;28;20201;-57
2022/07/06 04:32:36;;;;;;;4.10;3.67;;;19.10;1.00;;;;;;5028747;28;20429;-54
2022/07/06 04:35:03;;;;;;;5.53;4.80;;;19.00;1.00;;;;;;5040221;28;20455;-54
2022/07/06 04:37:29;;;;;;;4.90;4.50;;;18.90;1.00;;;;;;5033944;28;20520;-55
2022/07/06 04:39:54;;;;;;;4.43;4.03;;;19.00;1.00;;;;;;5051283;28;20724;-53
2022/07/06 04:42:20;;;;;;;4.20;3.90;;;19.00;1.00;;;;;;5037762;28;20195;-54
2022/07/06 04:44:45;;;;;;;4.53;4.03;;;18.90;1.00;;;;;;5030627;28;20271;-55
2022/07/06 04:47:12;;;;;;;4.77;4.37;;;18.70;1.00;;;;;;5029138;28;20193;-55
2022/07/06 04:49:38;;;;;;;4.30;3.80;;;18.70;1.00;;;;;;5030930;28;20191;-54
2022/07/06 04:52:04;;;;;;;5.27;4.87;;;18.60;1.00;;;;;;5025592;28;20945;-55
2022/07/06 04:54:30;;;;;;;4.07;3.77;;;18.60;1.00;;;;;;5030786;28;20529;-56
2022/07/06 04:56:55;;;;;;;8.20;4.60;;;18.60;1.00;;;;;;5029164;28;20467;-55
2022/07/06 04:59:21;;;;;;;5.10;4.70;;;18.50;1.00;;;;;;5030163;28;20199;-55
2022/07/06 05:01:47;;;;;;;4.90;4.30;;;18.50;1.00;;;;;;5029793;28;20196;-54
2022/07/06 05:04:13;;;;;;;6.47;4.43;;;18.50;1.00;;;;;;5027968;28;20271;-55
2022/07/06 05:06:39;;;;;;;5.23;4.80;;;18.50;1.00;;;;;;5029366;28;20188;-56
2022/07/06 05:09:05;;;;;;;4.40;4.00;;;18.50;1.00;;;;;;5030143;28;20632;-54
2022/07/06 05:11:31;;;;;;;4.97;4.57;;;18.50;1.00;;;;;;5029146;28;20463;-54
2022/07/06 05:13:57;;;;;;;4.07;3.77;;;18.50;1.00;;;;;;5030018;28;20446;-56
2022/07/06 05:16:23;;;;;;;5.50;4.97;;;18.60;1.00;;;;;;5027280;28;20201;-55
2022/07/06 05:18:48;;;;;;;4.67;4.27;;;18.70;1.00;;;;;;5026811;28;20456;-54
2022/07/06 05:21:14;;;;;;;4.40;3.70;;;18.80;1.00;;;;;;5033397;28;20562;-55
2022/07/06 05:23:40;;;;;;;4.73;3.70;;;18.90;1.00;;;;;;5029881;28;20216;-54
2022/07/06 05:26:06;;;;;;;7.97;3.90;;;17.90;1.00;;;;;;5027015;28;20494;-53
2022/07/06 05:28:32;;;;;;;4.40;4.10;;;19.00;1.00;;;;;;5028492;28;20187;-56
2022/07/06 05:30:58;;;;;;;4.47;3.80;;;19.10;1.00;;;;;;5025505;28;20502;-55
2022/07/06 05:33:23;;;;;;;4.73;4.23;;;19.00;1.00;;;;;;5026219;28;20192;-57
2022/07/06 05:35:49;;;;;;;11.80;4.10;;;18.90;1.00;;;;;;5041885;28;20192;-55
2022/07/06 05:38:15;;;;;;;5.43;4.20;;;18.80;1.00;;;;;;5024172;28;20205;-53
2022/07/06 05:40:40;;;;;;;4.00;3.70;;;18.90;1.00;;;;;;5029967;28;20553;-53
2022/07/06 05:43:06;;;;;;;4.20;3.80;;;18.90;1.00;;;;;;5029192;28;20474;-56
2022/07/06 05:45:31;;;;;;;4.07;3.77;;;19.10;1.00;;;;;;5029505;28;20185;-56
2022/07/06 05:50:41;;;;;;;10.27;4.63;;;19.20;1.00;;;;;;5030104;28;20330;-52
2022/07/06 05:53:07;;;;;;;4.40;4.00;;;19.40;1.00;;;;;;5036435;28;20525;-54
2022/07/06 05:55:33;;;;;;;4.57;3.90;;;19.40;1.00;;;;;;5042183;28;20185;-54
2022/07/06 05:57:59;;;;;;;3.40;3.10;;;19.30;1.00;;;;;;5033243;28;20470;-56
2022/07/06 06:00:26;;;;;;;4.23;3.83;;;19.10;1.00;;;;;;5033863;28;20602;-55
2022/07/06 06:02:53;;;;;;;4.43;4.03;;;19.40;1.00;;;;;;5033536;28;20199;-54
2022/07/06 06:05:19;;;;;;;4.83;3.50;;;19.50;1.00;;;;;;5034142;28;20431;-56
2022/07/06 06:07:50;;;;;;;3.60;3.30;;;19.70;1.00;;;;;;5033379;28;20513;-56
2022/07/06 06:10:17;;;;;;;3.57;3.27;;;20.00;1.00;;;;;;5033697;28;20439;-55
2022/07/06 06:12:44;;;;;;;3.70;2.90;;;20.10;1.00;;;;;;5033153;28;20414;-55
2022/07/06 06:15:10;;;;;;;4.03;3.10;;;19.90;1.00;;;;;;5033905;28;20413;-55
2022/07/06 06:17:37;;;;;;;3.73;3.47;;;20.10;1.00;;;;;;5033601;28;20558;-54
2022/07/06 06:20:06;;;;;;;3.30;3.10;;;20.30;1.00;;;;;;5049937;28;20442;-53
2022/07/06 06:22:44;;;;;;;4.43;3.47;;;20.50;1.00;;;;;;5053181;28;20434;-55
2022/07/06 06:25:10;;;;;;;3.57;3.27;;;20.50;1.00;;;;;;5031144;28;20793;-53
2022/07/06 06:27:35;;;;;;;5.90;2.90;;;20.60;1.00;;;;;;5033475;28;20511;-54
2022/07/06 06:30:01;;;;;;;4.00;2.90;;;20.90;1.00;;;;;;5032538;28;20734;-55
2022/07/06 06:32:27;;;;;;;4.73;2.60;;;20.80;1.00;;;;;;5033439;28;20180;-55
2022/07/06 06:34:52;;;;;;;4.10;2.97;;;20.70;1.00;;;;;;5033007;28;20395;-55
2022/07/06 06:37:18;;;;;;;3.23;2.93;;;20.60;1.00;;;;;;5033049;28;20217;-55
2022/07/06 06:39:43;;;;;;;6.10;2.60;;;20.50;1.00;;;;;;5033373;28;20646;-55
2022/07/06 06:42:09;;;;;;;3.37;2.70;;;20.40;1.00;;;;;;5032948;28;20196;-52
2022/07/06 06:44:35;;;;;;;5.00;2.60;;;20.50;1.00;;;;;;5032273;28;20196;-54
2022/07/06 06:47:00;;;;;;;3.83;2.37;;;20.60;1.00;;;;;;5032622;28;20184;-55
2022/07/06 06:49:26;;;;;;;2.60;2.40;;;20.80;1.00;;;;;;5033453;28;20642;-57
2022/07/06 06:51:51;;;;;;;6.60;2.40;;;20.90;1.00;;;;;;5033086;28;20192;-56
2022/07/06 06:54:17;;;;;;;5.60;2.40;;;20.90;1.00;;;;;;5032398;28;20192;-55
2022/07/06 06:56:42;;;;;;;5.03;3.43;;;21.20;1.00;;;;;;5032429;28;20204;-54
2022/07/06 06:59:08;;;;;;;4.03;2.50;;;21.20;1.00;;;;;;5032950;28;20184;-58
2022/07/06 07:01:34;;;;;;;4.73;2.40;;;21.60;1.00;;;;;;5032974;28;20177;-55
2022/07/06 07:03:59;;;;;;;3.93;2.40;;;21.50;1.00;;;;;;5032288;28;20309;-55
2022/07/06 07:06:25;;;;;;;2.40;2.10;;;21.70;1.00;;;;;;5032437;28;20185;-54
2022/07/06 07:08:51;;;;;;;4.07;2.53;;;21.80;1.00;;;;;;5031864;28;20586;-54
2022/07/06 07:11:16;;;;;;;7.03;2.37;;;21.80;1.00;;;;;;5032607;28;20184;-54
2022/07/06 07:13:42;;;;;;;2.33;2.07;;;21.80;1.00;;;;;;5032030;28;20268;-54
2022/07/06 07:16:07;;;;;;;4.03;2.10;;;21.90;1.00;;;;;;5032105;28;20209;-54
2022/07/06 07:18:33;;;;;;;4.17;2.03;;;22.20;1.00;;;;;;5032451;28;20177;-56
2022/07/06 07:20:59;;;;;;;3.90;2.03;;;22.60;1.00;;;;;;5032331;28;20607;-55
2022/07/06 07:23:24;;;;;;;5.00;2.13;;;22.80;1.00;;;;;;5032044;28;20184;-56
2022/07/06 07:25:50;;;;;;;4.27;1.90;;;23.10;1.00;;;;;;5032387;28;20256;-55
2022/07/06 07:28:15;;;;;;;1.93;1.73;;;23.10;1.00;;;;;;5031868;28;20185;-54
2022/07/06 07:30:41;;;;;;;2.70;1.90;;;23.20;1.00;;;;;;5032129;28;20223;-55
2022/07/06 07:33:07;;;;;;;3.10;2.33;;;23.40;1.00;;;;;;5031463;28;20181;-55
2022/07/06 07:35:32;;;;;;;1.87;1.70;;;23.50;1.00;;;;;;5031923;28;20189;-55
2022/07/06 07:37:58;;;;;;;3.83;1.97;;;23.50;1.00;;;;;;5032283;28;20705;-55
2022/07/06 07:40:24;;;;;;;3.30;1.77;;;23.10;1.00;;;;;;5031831;28;20185;-55
2022/07/06 07:42:50;;;;;;;2.57;1.67;;;22.90;1.00;;;;;;5031852;28;20180;-55
2022/07/06 07:45:16;;;;;;;2.60;2.07;;;23.20;1.00;;;;;;5032160;28;20410;-55
2022/07/06 07:47:42;;;;;;;3.63;1.43;;;23.40;1.00;;;;;;5031949;28;20447;-56
2022/07/06 07:50:08;;;;;;;2.00;1.67;;;22.70;1.00;;;;;;5032096;28;20185;-56
2022/07/06 07:52:34;;;;;;;3.93;2.10;;;22.80;1.00;;;;;;5030594;28;20450;-55
2022/07/06 07:54:59;;;;;;;4.43;2.57;;;23.10;1.00;;;;;;5031582;28;20546;-55
2022/07/06 07:57:25;;;;;;;7.33;2.00;;;23.20;1.00;;;;;;5031502;28;20226;-56
2022/07/06 07:59:50;;;;;;;3.00;1.73;;;23.20;1.00;;;;;;5031804;28;20219;-56
2022/07/06 08:02:16;;;;;;;3.10;1.80;;;22.70;1.00;;;;;;5031567;28;20177;-55
2022/07/06 08:04:41;;;;;;;2.60;1.67;;;22.30;1.00;;;;;;5030955;28;20677;-56
2022/07/06 08:07:07;;;;;;;4.70;1.73;;;22.40;1.00;;;;;;5032008;28;20209;-54
2022/07/06 08:09:33;;;;;;;3.60;2.07;;;22.50;1.00;;;;;;5031670;28;20326;-54
2022/07/06 08:11:59;;;;;;;3.33;1.50;;;22.60;1.00;;;;;;5031914;28;20590;-55
2022/07/06 08:14:25;;;;;;;1.63;1.10;;;22.60;1.00;;;;;;5031415;28;20422;-55
2022/07/06 08:16:51;;;;;;;4.17;1.40;;;22.30;1.00;;;;;;5031428;28;20209;-55
2022/07/06 08:19:17;;;;;;;1.67;1.30;;;22.20;1.00;;;;;;5051187;28;20442;-54
2022/07/06 08:21:43;;;;;;;2.00;1.23;;;22.20;1.00;;;;;;5035007;28;20441;-56
2022/07/06 08:24:09;;;;;;;4.63;1.67;;;22.20;1.00;;;;;;5031379;28;20212;-53
2022/07/06 08:26:34;;;;;;;2.63;1.40;;;22.20;1.00;;;;;;5031790;28;20443;-55
2022/07/06 08:29:00;;;;;;;3.33;1.50;;;22.20;1.00;;;;;;5031506;28;20197;-55
2022/07/06 08:31:30;;;;;;;2.77;1.60;;;;;;;;;;5031186;28;20221;-56
2022/07/06 08:33:56;;;;;;;2.60;1.43;;;22.40;1.00;;;;;;5031159;28;20640;-55
2022/07/06 08:36:23;;;;;;;4.73;1.60;;;22.70;1.00;;;;;;5031205;28;20455;-54
2022/07/06 08:38:49;;;;;;;2.53;1.40;;;22.70;1.00;;;;;;5031040;28;20514;-56
2022/07/06 08:41:16;;;;;;;3.10;1.50;;;22.70;1.00;;;;;;5031252;28;20529;-56
2022/07/06 08:43:42;;;;;;;3.47;1.40;;;22.70;1.00;;;;;;5031378;28;20824;-54
2022/07/06 08:46:08;;;;;;;2.70;1.77;;;22.60;1.00;;;;;;5034927;28;20409;-56
2022/07/06 08:48:38;;;;;;;3.70;1.60;;;22.50;1.00;;;;;;5051250;28;20211;-54
2022/07/06 08:51:07;;;;;;;1.93;1.47;;;22.00;1.00;;;;;;5050868;28;20405;-55
2022/07/06 08:53:33;;;;;;;3.90;1.70;;;21.90;1.00;;;;;;5036226;28;20428;-56
2022/07/06 08:56:01;;;;;;;3.43;2.47;;;22.10;1.00;;;;;;5030533;28;20925;-54
2022/07/06 08:58:27;;;;;;;3.03;1.57;;;22.80;1.00;;;;;;5031081;28;20439;-56
2022/07/06 09:00:54;;;;;;;2.03;1.40;;;23.20;1.00;;;;;;5030397;28;20439;-55
2022/07/06 09:03:20;;;;;;;3.10;1.50;;;22.90;1.00;;;;;;5030249;28;20450;-55
2022/07/06 09:05:47;;;;;;;2.10;1.20;;;22.60;1.00;;;;;;5030647;28;20530;-55
2022/07/06 09:08:13;;;;;;;1.83;1.47;;;22.70;1.00;;;;;;5030422;28;20189;-55
2022/07/06 09:10:39;;;;;;;2.20;1.50;;;22.60;1.00;;;;;;5030411;28;20439;-56
2022/07/06 09:13:06;;;;;;;2.93;1.50;;;22.80;1.00;;;;;;5029938;28;20498;-55
2022/07/06 09:15:33;;;;;;;2.50;1.40;;;22.70;1.00;;;;;;5030178;28;20219;-56
2022/07/06 09:17:58;;;;;;;2.60;1.30;;;22.60;1.00;;;;;;5030356;28;20463;-57
2022/07/06 09:20:25;;;;;;;4.13;1.50;;;22.60;1.00;;;;;;5029899;28;20443;-54
2022/07/06 09:22:50;;;;;;;15.17;2.27;;;22.60;1.00;;;;;;5030075;28;20219;-55
2022/07/06 09:25:16;;;;;;;3.80;1.57;;;22.80;1.00;;;;;;5028673;28;20817;-55
2022/07/06 09:27:47;;;;;;;1.80;1.60;;;22.90;1.00;;;;;;5029854;28;20176;-55
2022/07/06 09:30:14;;;;;;;1.67;1.57;;;22.40;1.00;;;;;;5029352;28;21044;-54
2022/07/06 09:32:45;;;;;;;3.40;1.67;;;22.20;1.00;;;;;;5029434;28;20765;-55
2022/07/06 09:35:26;;;;;;;2.70;1.77;;;22.70;1.00;;;;;;5029985;28;20449;-54
2022/07/06 09:38:04;;;;;;;6.50;1.83;;;23.20;1.00;;;;;;5030030;28;20463;-55
2022/07/06 09:40:32;;;;;;;2.43;1.57;;;23.60;1.00;;;;;;5030258;28;20435;-55
2022/07/06 09:43:27;;;;;;;2.87;1.50;;;23.30;1.00;;;;;;5030050;28;20513;-54
2022/07/06 09:45:54;;;;;;;2.47;1.30;;;22.50;1.00;;;;;;5025138;28;20435;-55
2022/07/06 09:48:25;;;;;;;2.50;1.40;;;22.40;1.00;;;;;;5029681;28;20765;-55
2022/07/06 09:50:56;;;;;;;3.93;1.50;;;22.50;1.00;;;;;;5029646;28;20409;-55
2022/07/06 09:53:24;;;;;;;2.43;1.47;;;22.80;1.00;;;;;;5029982;28;20431;-55
2022/07/06 09:55:52;;;;;;;2.90;1.60;;;23.00;1.00;;;;;;5029458;28;20772;-55
2022/07/06 09:58:19;;;;;;;2.43;1.43;;;23.20;1.00;;;;;;5029391;28;20459;-55
2022/07/06 10:00:46;;;;;;;4.03;1.43;;;23.20;1.00;;;;;;5036790;28;20939;-55
2022/07/06 10:03:13;;;;;;;5.40;1.83;;;23.40;1.00;;;;;;5049771;28;20438;-54
2022/07/06 10:05:40;;;;;;;3.37;1.60;;;23.30;1.00;;;;;;5032544;28;20438;-55
2022/07/06 10:08:09;;;;;;;4.10;1.77;;;22.90;1.00;;;;;;5028788;28;20817;-55
2022/07/06 10:10:36;;;;;;;3.30;2.00;;;22.70;1.00;;;;;;5029276;28;20996;-54
2022/07/06 10:13:03;;;;;;;2.00;1.80;;;22.80;1.00;;;;;;5029426;28;20442;-55
2022/07/06 10:15:33;;;;;;;3.40;2.00;;;23.00;1.00;;;;;;5029302;28;20440;-54
2022/07/06 10:18:07;;;;;;;2.93;1.80;;;23.10;1.00;;;;;;5029235;28;20437;-55
2022/07/06 10:20:38;;;;;;;2.50;1.70;;;22.90;1.00;;;;;;5029021;28;20522;-55
2022/07/06 10:23:06;;;;;;;2.30;1.70;;;23.00;1.00;;;;;;5028763;28;20443;-54
2022/07/06 10:25:33;;;;;;;2.70;1.67;;;23.30;1.00;;;;;;5029457;28;20435;-56
2022/07/06 10:28:00;;;;;;;3.77;2.40;;;23.70;1.00;;;;;;5042562;28;20435;-56
2022/07/06 10:30:28;;;;;;;2.10;1.70;;;23.80;1.00;;;;;;5034740;28;20475;-53
2022/07/06 10:32:56;;;;;;;2.43;1.70;;;23.90;1.00;;;;;;5029921;28;20447;-55
2022/07/06 10:35:22;;;;;;;2.00;1.47;;;24.30;1.00;;;;;;5028019;28;20439;-55
2022/07/06 10:38:09;;;;;;;2.30;1.47;;;24.20;1.00;;;;;;5032208;28;20816;-54
2022/07/06 10:43:21;;;;;;;8.00;4.80;;;23.00;1.00;;;;;;5030104;28;20539;-55
2022/07/06 10:45:46;;;;;;;2.23;2.00;;;22.60;1.00;;;;;;5040570;28;20522;-56
2022/07/06 10:48:12;;;;;;;2.70;2.13;;;22.70;1.00;;;;;;5053029;28;20192;-54
2022/07/06 10:50:39;;;;;;;4.63;1.80;;;23.10;1.00;;;;;;5052971;28;20192;-54
2022/07/06 10:53:16;;;;;;;4.60;1.90;;;23.80;1.00;;;;;;5052834;28;20531;-56
2022/07/06 10:55:49;;;;;;;2.03;1.80;;;24.30;1.00;;;;;;5052557;28;20914;-54
2022/07/06 10:58:15;;;;;;;2.63;1.57;;;23.90;1.00;;;;;;5040667;28;20493;-55
2022/07/06 11:00:54;;;;;;;3.07;1.60;;;23.50;1.00;;;;;;5032519;28;20435;-53
2022/07/06 11:04:05;;;;;;;3.53;1.60;;;23.50;1.00;;;;;;5032516;28;20964;-53
2022/07/06 11:06:38;;;;;;;2.73;1.90;;;23.70;1.00;;;;;;5031337;28;20436;-55
2022/07/06 11:09:09;;;;;;;3.93;2.33;;;23.60;1.00;;;;;;5045831;28;20567;-55
2022/07/06 11:11:35;;;;;;;3.20;1.80;;;24.00;1.00;;;;;;5052493;28;20472;-54
2022/07/06 11:14:08;;;;;;;2.47;1.77;;;24.40;1.00;;;;;;5052541;28;20545;-55
2022/07/06 11:16:48;;;;;;;4.43;2.10;;;24.40;1.00;;;;;;5052298;28;20192;-55
2022/07/06 11:19:25;;;;;;;3.03;1.80;;;24.60;1.00;;;;;;5052186;28;20462;-54
2022/07/06 11:21:57;;;;;;;2.23;1.80;;;24.50;1.00;;;;;;5043695;28;20525;-54
2022/07/06 11:24:26;;;;;;;4.27;1.90;;;24.30;1.00;;;;;;5032404;28;20439;-53
2022/07/06 11:26:53;;;;;;;3.37;1.83;;;24.40;1.00;;;;;;5031406;28;20443;-54
2022/07/06 11:29:21;;;;;;;3.40;1.97;;;24.70;1.00;;;;;;5039671;28;20438;-58
2022/07/06 11:31:48;;;;;;;1.83;1.73;;;24.40;1.00;;;;;;5030853;28;21000;-54
2022/07/06 11:34:22;;;;;;;3.10;2.00;;;24.30;1.00;;;;;;5032208;28;20435;-54
2022/07/06 11:36:48;;;;;;;2.20;2.00;;;24.50;1.00;;;;;;5032269;28;20972;-56
2022/07/06 11:39:14;;;;;;;5.93;2.40;;;24.50;1.00;;;;;;5035457;28;20427;-55
2022/07/06 11:41:40;;;;;;;2.90;1.70;;;25.10;1.00;;;;;;5052061;28;20522;-56
2022/07/06 11:44:06;;;;;;;3.40;1.70;;;25.30;1.00;;;;;;5051466;28;20435;-55
2022/07/06 11:46:35;;;;;;;1.83;1.50;;;25.40;1.00;;;;;;5051461;28;20446;-53
2022/07/06 11:49:00;;;;;;;2.70;1.93;;;25.50;1.00;;;;;;5044767;28;20181;-55
2022/07/06 11:51:31;;;;;;;2.80;1.53;;;24.70;1.00;;;;;;5031592;28;20491;-55
2022/07/06 11:54:02;;;;;;;3.97;1.70;;;24.30;1.00;;;;;;5030958;28;20192;-56
2022/07/06 11:56:30;;;;;;;4.60;1.87;;;24.10;1.00;;;;;;5031753;28;20506;-55
2022/07/06 11:58:59;;;;;;;1.50;1.40;;;23.80;1.00;;;;;;5031749;28;20892;-55
2022/07/06 12:01:27;;;;;;;2.23;1.80;;;24.00;1.00;;;;;;5031282;28;20463;-55
2022/07/06 12:03:53;;;;;;;2.80;1.50;;;24.30;1.00;;;;;;5031481;28;20521;-55
2022/07/06 12:06:21;;;;;;;5.03;1.90;;;24.50;1.00;;;;;;5031196;28;20805;-53
2022/07/06 12:08:49;;;;;;;5.63;1.43;;;24.40;1.00;;;;;;5031458;28;20442;-55
2022/07/06 12:11:29;;;;;;;2.80;1.80;;;24.10;1.00;;;;;;5031204;28;20771;-54
2022/07/06 12:13:57;;;;;;;4.20;1.60;;;23.90;1.00;;;;;;5031586;28;20518;-54
2022/07/06 12:16:36;;;;;;;2.60;1.60;;;23.80;1.00;;;;;;5031464;28;20774;-55
2022/07/06 12:19:04;;;;;;;2.30;1.83;;;23.90;1.00;;;;;;5031593;28;20445;-56
2022/07/06 12:21:31;;;;;;;2.50;1.33;;;23.80;1.00;;;;;;5031266;28;20982;-55
2022/07/06 12:23:57;;;;;;;2.90;1.80;;;23.50;1.00;;;;;;5031298;28;20966;-55
2022/07/06 12:26:29;;;;;;;4.17;2.10;;;23.70;1.00;;;;;;5038522;28;20810;-54
2022/07/06 12:29:03;;;;;;;1.87;1.53;;;23.80;1.00;;;;;;5051304;28;20438;-55
2022/07/06 12:31:40;;;;;;;2.90;1.70;;;24.00;1.00;;;;;;5050754;28;20466;-55
2022/07/06 12:34:16;;;;;;;1.77;1.60;;;23.80;1.00;;;;;;5042308;28;20533;-54
2022/07/06 12:36:56;;;;;;;2.23;1.40;;;23.50;1.00;;;;;;5050174;28;20986;-53
2022/07/06 12:39:24;;;;;;;2.03;1.40;;;23.80;1.00;;;;;;5050865;28;20484;-54
2022/07/06 12:41:52;;;;;;;5.00;1.53;;;24.10;1.00;;;;;;5050830;28;20427;-54
2022/07/06 12:44:22;;;;;;;2.40;1.80;;;24.20;1.00;;;;;;5051175;28;20449;-54
2022/07/06 12:47:05;;;;;;;2.83;1.97;;;24.30;1.00;;;;;;5028736;28;20810;-55
2022/07/06 12:49:30;;;;;;;4.57;2.30;;;24.10;1.00;;;;;;5030646;28;20439;-53
2022/07/06 12:52:12;;;;;;;4.80;4.30;;;24.50;1.00;;;;;;5032462;28;20798;-56
2022/07/06 12:54:47;;;;;;;3.17;1.30;;;25.10;1.00;;;;;;5031121;28;20188;-56
2022/07/06 12:57:25;;;;;;;2.10;1.90;;;25.20;1.00;;;;;;5030771;28;20537;-54
2022/07/06 12:59:53;;;;;;;2.30;1.70;;;25.20;1.00;;;;;;5030634;28;20467;-54
2022/07/06 13:02:34;;;;;;;3.43;1.50;;;25.00;1.00;;;;;;5030571;28;20849;-55
2022/07/06 13:05:04;;;;;;;2.00;1.60;;;25.00;1.00;;;;;;5030315;28;20443;-56
2022/07/06 13:07:32;;;;;;;3.23;1.40;;;25.00;1.00;;;;;;5029217;28;20444;-57
2022/07/06 13:09:58;;;;;;;2.10;1.47;;;25.00;1.00;;;;;;5030459;28;20454;-55
2022/07/06 13:12:24;;;;;;;3.00;1.43;;;24.90;1.00;;;;;;5026598;28;20471;-55
2022/07/06 13:14:51;;;;;;;2.80;1.50;;;25.10;1.00;;;;;;5030151;28;21581;-55
2022/07/06 13:17:17;;;;;;;4.03;1.70;;;25.20;1.00;;;;;;5030407;28;20467;-55
2022/07/06 13:19:43;;;;;;;3.07;1.80;;;25.30;1.00;;;;;;5039821;28;20487;-53
2022/07/06 13:22:08;;;;;;;3.37;1.90;;;25.20;1.00;;;;;;5035490;28;20447;-55
2022/07/06 13:24:34;;;;;;;1.50;1.30;;;25.30;1.00;;;;;;5030064;28;20531;-56
2022/07/06 13:27:00;;;;;;;2.27;1.60;;;25.20;1.00;;;;;;5029919;28;20587;-55
2022/07/06 13:29:26;;;;;;;4.57;1.70;;;24.70;1.00;;;;;;5030277;28;20513;-54
2022/07/06 13:31:52;;;;;;;8.03;1.67;;;24.30;1.00;;;;;;5028497;28;20554;-54
2022/07/06 13:34:18;;;;;;;5.60;1.60;;;24.10;1.00;;;;;;5032569;28;20188;-55
2022/07/06 13:36:43;;;;;;;2.73;1.60;;;24.20;1.00;;;;;;5049705;28;20612;-55
2022/07/06 13:39:09;;;;;;;1.80;1.47;;;24.10;1.00;;;;;;5049998;28;20184;-56